Time;durP1;ratioP1;P1;durP2;ratioP2;P2;SDS_P1;SDS_P2;PMS_P1;PMS_P2;Temp;Humidity;BMP_temperature;BMP_pressure;BME280_temperature;BME280_humidity;BME280_pressure;Samples;Min_cycle;Max_cycle;Signal;HPM_P1;HPM_P2
2022/03/15 00:01:45;;;;;;;;;;;;;;;;;;5050235;27;118844;-67
2022/03/15 00:04:11;;;;;;;;;;;;;;;;;;5037099;27;135525;-67
2022/03/15 00:06:38;;;;;;;;;;;;;;;;;;5050300;27;137756;-67
2022/03/15 00:09:04;;;;;;;;;;;;;;;;;;5041967;27;118606;-68
2022/03/15 00:11:30;;;;;;;;;;;;;;;;;;5038871;27;135305;-67
2022/03/15 00:13:58;;;;;;;;;;;;;;;;;;5048708;27;107765;-67
2022/03/15 00:16:25;;;;;;;;;;;;;;;;;;5049681;27;116839;-67
2022/03/15 00:18:52;;;;;;;;;;;;;;;;;;5045830;27;136937;-67
2022/03/15 00:21:20;;;;;;;;;;;;;;;;;;5039675;27;107265;-67
2022/03/15 00:23:46;;;;;;;;;;;;;;;;;;5052926;27;137593;-67
2022/03/15 00:26:12;;;;;;;;;;;;;;;;;;5050735;27;137185;-68
2022/03/15 00:28:38;;;;;;;;;;;;;;;;;;5050481;27;118504;-67
2022/03/15 00:31:05;;;;;;;;;;;;;;;;;;5052043;27;135144;-68
2022/03/15 00:33:31;;;;;;;;;;;;;;;;;;5038377;27;135787;-67
2022/03/15 00:35:59;;;;;;;;;;;;;;;;;;5052372;27;118648;-67
2022/03/15 00:38:25;;;;;;;;;;;;;;;;;;5052737;27;136296;-67
2022/03/15 00:40:51;;;;;;;;;;;;;;;;;;5032355;27;118454;-67
2022/03/15 00:43:19;;;;;;;;;;;;;;;;;;5050662;27;106650;-66
2022/03/15 00:45:47;;;;;;;;;;;;;;;;;;5048888;27;106757;-67
2022/03/15 00:48:14;;;;;;;;;;;;;;;;;;5052111;27;117648;-67
2022/03/15 00:50:43;;;;;;;;;;;;;;;;;;5022281;27;109021;-67
2022/03/15 00:53:10;;;;;;;;;;;;;;;;;;5044713;27;107234;-67
2022/03/15 00:55:37;;;;;;;;;;;;;;;;;;5048745;27;105778;-68
2022/03/15 00:58:03;;;;;;;;;;;;;;;;;;5051400;27;135500;-66
2022/03/15 01:00:31;;;;;;;;;;;;;;;;;;5050949;27;135549;-65
2022/03/15 01:03:00;;;;;;;;;;;;;;;;;;5046098;27;106333;-65
2022/03/15 01:05:26;;;;;;;;;;;;;;;;;;5026026;27;134833;-65
2022/03/15 01:07:53;;;;;;;;;;;;;;;;;;5042778;27;106156;-66
2022/03/15 01:10:19;;;;;;;;;;;;;;;;;;5047093;27;137359;-66
2022/03/15 01:12:45;;;;;;;;;;;;;;;;;;5049869;27;136915;-66
2022/03/15 01:15:12;;;;;;;;;;;;;;;;;;5035229;27;118713;-66
2022/03/15 01:17:38;;;;;;;;;;;;;;;;;;5023576;27;107024;-66
2022/03/15 01:20:05;;;;;;;;;;;;;;;;;;5039000;27;137455;-66
2022/03/15 01:22:31;;;;;;;;;;;;;;;;;;5040678;27;106751;-66
2022/03/15 01:24:58;;;;;;;;;;;;;;;;;;5020114;27;109058;-66
2022/03/15 01:27:24;;;;;;;;;;;;;;;;;;5045168;27;116158;-66
2022/03/15 01:29:50;;;;;;;;;;;;;;;;;;5047967;27;135134;-66
2022/03/15 01:32:16;;;;;;;;;;;;;;;;;;5030059;27;131876;-66
2022/03/15 01:34:46;;;;;;;;;;;;;;;;;;5032180;27;106518;-66
2022/03/15 01:37:12;;;;;;;;;;;;;;;;;;5029790;27;121395;-66
2022/03/15 01:39:38;;;;;;;;;;;;;;;;;;5025854;27;131126;-66
2022/03/15 01:42:05;;;;;;;;;;;;;;;;;;5034507;27;115872;-67
2022/03/15 01:44:33;;;;;;;;;;;;;;;;;;5044224;27;135817;-66
2022/03/15 01:46:59;;;;;;;;;;;;;;;;;;5040902;27;117443;-66
2022/03/15 01:49:29;;;;;;;;;;;;;;;;;;5030555;27;108322;-66
2022/03/15 01:51:56;;;;;;;;;;;;;;;;;;5032711;27;133897;-66
2022/03/15 01:54:22;;;;;;;;;;;;;;;;;;5043817;27;117567;-66
2022/03/15 01:56:50;;;;;;;;;;;;;;;;;;5034876;27;106698;-66
2022/03/15 01:59:16;;;;;;;;;;;;;;;;;;5025921;27;138988;-66
2022/03/15 02:01:43;;;;;;;;;;;;;;;;;;5028487;27;118566;-66
2022/03/15 02:04:09;;;;;;;;;;;;;;;;;;5044810;27;136300;-66
2022/03/15 02:06:36;;;;;;;;;;;;;;;;;;5052451;27;119904;-66
2022/03/15 02:09:02;;;;;;;;;;;;;;;;;;5009045;22;122289;-68
2022/03/15 02:11:28;;;;;;;;;;;;;;;;;;4971730;28;136316;-67
2022/03/15 02:13:54;;;;;;;;;;;;;;;;;;4959358;28;118887;-67
2022/03/15 02:16:21;;;;;;;;;;;;;;;;;;4970789;28;135175;-67
2022/03/15 02:18:47;;;;;;;;;;;;;;;;;;4964309;28;136715;-67
2022/03/15 02:21:13;;;;;;;;;;;;;;;;;;4972269;28;106083;-65
2022/03/15 02:23:40;;;;;;;;;;;;;;;;;;4970209;28;136286;-65
2022/03/15 02:26:06;;;;;;;;;;;;;;;;;;4971504;28;137095;-66
2022/03/15 02:28:32;;;;;;;;;;;;;;;;;;4969215;28;136430;-65
2022/03/15 02:30:59;;;;;;;;;;;;;;;;;;4982656;28;107526;-66
2022/03/15 02:33:25;;;;;;;;;;;;;;;;;;4967495;28;119160;-65
2022/03/15 02:35:51;;;;;;;;;;;;;;;;;;4963815;28;136416;-65
2022/03/15 02:38:17;;;;;;;;;;;;;;;;;;4969680;28;136168;-66
2022/03/15 02:40:44;;;;;;;;;;;;;;;;;;4970973;28;115903;-65
2022/03/15 02:43:10;;;;;;;;;;;;;;;;;;4961063;28;136686;-66
2022/03/15 02:45:36;;;;;;;;;;;;;;;;;;4969198;28;136390;-66
2022/03/15 02:48:03;;;;;;;;;;;;;;;;;;4974769;28;118832;-65
2022/03/15 02:50:29;;;;;;;;;;;;;;;;;;4970893;28;108375;-65
2022/03/15 02:52:55;;;;;;;;;;;;;;;;;;4965486;28;117683;-65
2022/03/15 02:55:22;;;;;;;;;;;;;;;;;;4958717;28;132065;-65
2022/03/15 02:57:49;;;;;;;;;;;;;;;;;;4968688;28;109699;-66
2022/03/15 03:00:16;;;;;;;;;;;;;;;;;;4970453;28;118223;-65
2022/03/15 03:02:42;;;;;;;;;;;;;;;;;;4970064;28;136351;-66
2022/03/15 03:05:08;;;;;;;;;;;;;;;;;;4970216;28;137595;-66
2022/03/15 03:07:35;;;;;;;;;;;;;;;;;;4960087;28;119260;-66
2022/03/15 03:10:01;;;;;;;;;;;;;;;;;;4954760;28;133357;-65
2022/03/15 03:12:28;;;;;;;;;;;;;;;;;;4963136;28;118085;-65
2022/03/15 03:14:55;;;;;;;;;;;;;;;;;;4971059;28;136944;-67
2022/03/15 03:17:24;;;;;;;;;;;;;;;;;;4967531;28;136169;-66
2022/03/15 03:19:50;;;;;;;;;;;;;;;;;;4970282;28;120024;-65
2022/03/15 03:22:16;;;;;;;;;;;;;;;;;;4969687;28;136274;-66
2022/03/15 03:24:42;;;;;;;;;;;;;;;;;;4967934;28;137883;-65
2022/03/15 03:27:13;;;;;;;;;;;;;;;;;;4970163;28;119470;-65
2022/03/15 03:29:40;;;;;;;;;;;;;;;;;;4971911;28;130079;-66
2022/03/15 03:32:07;;;;;;;;;;;;;;;;;;4963706;28;118210;-66
2022/03/15 03:34:34;;;;;;;;;;;;;;;;;;4951802;28;136364;-68
2022/03/15 03:37:00;;;;;;;;;;;;;;;;;;4971506;28;135619;-67
2022/03/15 03:39:31;;;;;;;;;;;;;;;;;;4954101;28;119298;-66
2022/03/15 03:41:58;;;;;;;;;;;;;;;;;;4956083;28;136056;-67
2022/03/15 03:44:24;;;;;;;;;;;;;;;;;;4964060;28;134927;-67
2022/03/15 03:46:50;;;;;;;;;;;;;;;;;;4971102;28;105733;-65
2022/03/15 03:49:17;;;;;;;;;;;;;;;;;;4954360;28;134838;-65
2022/03/15 03:51:43;;;;;;;;;;;;;;;;;;4971250;28;136947;-68
2022/03/15 03:54:09;;;;;;;;;;;;;;;;;;4966018;28;126927;-67
2022/03/15 03:56:35;;;;;;;;;;;;;;;;;;4971940;28;138254;-66
2022/03/15 03:59:02;;;;;;;;;;;;;;;;;;4975716;28;106983;-66
2022/03/15 04:01:28;;;;;;;;;;;;;;;;;;4972274;28;135859;-66
2022/03/15 04:03:59;;;;;;;;;;;;;;;;;;4971690;28;136924;-66
2022/03/15 04:06:25;;;;;;;;;;;;;;;;;;4972640;28;117152;-66
2022/03/15 04:08:54;;;;;;;;;;;;;;;;;;4973014;28;134233;-66
2022/03/15 04:11:21;;;;;;;;;;;;;;;;;;4969259;28;138018;-66
2022/03/15 04:13:47;;;;;;;;;;;;;;;;;;4972283;28;105643;-65
2022/03/15 04:16:16;;;;;;;;;;;;;;;;;;4968908;28;107710;-66
2022/03/15 04:18:42;;;;;;;;;;;;;;;;;;4973909;28;118026;-65
2022/03/15 04:21:08;;;;;;;;;;;;;;;;;;4969067;28;136320;-64
2022/03/15 04:23:35;;;;;;;;;;;;;;;;;;4968923;28;136912;-67
2022/03/15 04:26:01;;;;;;;;;;;;;;;;;;4966656;28;110035;-67
2022/03/15 04:28:28;;;;;;;;;;;;;;;;;;4973445;28;107113;-66
2022/03/15 04:30:54;;;;;;;;;;;;;;;;;;4967217;28;137950;-67
2022/03/15 04:33:21;;;;;;;;;;;;;;;;;;4971496;28;121255;-67
2022/03/15 04:35:47;;;;;;;;;;;;;;;;;;4963890;28;138013;-67
2022/03/15 04:38:14;;;;;;;;;;;;;;;;;;4970775;28;123384;-68
2022/03/15 04:40:40;;;;;;;;;;;;;;;;;;4967453;28;136687;-67
2022/03/15 04:43:06;;;;;;;;;;;;;;;;;;4971743;28;135866;-67
2022/03/15 04:45:32;;;;;;;;;;;;;;;;;;4967161;28;122516;-65
2022/03/15 04:47:59;;;;;;;;;;;;;;;;;;4971967;28;138759;-65
2022/03/15 04:50:25;;;;;;;;;;;;;;;;;;4958211;28;136400;-65
2022/03/15 04:52:51;;;;;;;;;;;;;;;;;;4972253;28;123515;-66
2022/03/15 04:55:18;;;;;;;;;;;;;;;;;;4968469;28;125729;-66
2022/03/15 04:57:46;;;;;;;;;;;;;;;;;;4975500;28;107242;-66
2022/03/15 05:00:12;;;;;;;;;;;;;;;;;;4966582;28;136441;-66
2022/03/15 05:02:44;;;;;;;;;;;;;;;;;;4968152;28;136912;-66
2022/03/15 05:05:10;;;;;;;;;;;;;;;;;;4970871;28;123645;-67
2022/03/15 05:07:36;;;;;;;;;;;;;;;;;;4970811;28;135731;-66
2022/03/15 05:12:48;;;;;;;;;;;;;;;;;;4952238;28;123881;-66
2022/03/15 05:15:14;;;;;;;;;;;;;;;;;;4961451;28;136479;-66
2022/03/15 05:17:40;;;;;;;;;;;;;;;;;;4968680;28;137049;-66
2022/03/15 05:20:08;;;;;;;;;;;;;;;;;;4974159;28;122918;-66
2022/03/15 05:22:34;;;;;;;;;;;;;;;;;;4973365;28;137803;-66
2022/03/15 05:25:01;;;;;;;;;;;;;;;;;;4960607;28;105775;-67
2022/03/15 05:27:27;;;;;;;;;;;;;;;;;;4971979;28;135215;-65
2022/03/15 05:29:53;;;;;;;;;;;;;;;;;;4965733;28;137146;-66
2022/03/15 05:32:20;;;;;;;;;;;;;;;;;;4964136;28;105887;-66
2022/03/15 05:34:46;;;;;;;;;;;;;;;;;;4959140;28;134679;-66
2022/03/15 05:37:12;;;;;;;;;;;;;;;;;;4968359;28;137752;-66
2022/03/15 05:39:39;;;;;;;;;;;;;;;;;;4974820;28;112570;-66
2022/03/15 05:42:05;;;;;;;;;;;;;;;;;;4952335;28;135535;-67
2022/03/15 05:44:31;;;;;;;;;;;;;;;;;;4953772;28;121874;-66
2022/03/15 05:46:57;;;;;;;;;;;;;;;;;;4970045;28;136139;-66
2022/03/15 05:49:24;;;;;;;;;;;;;;;;;;4962819;28;136559;-66
2022/03/15 05:51:50;;;;;;;;;;;;;;;;;;4969218;28;120900;-66
2022/03/15 05:54:17;;;;;;;;;;;;;;;;;;4960438;28;136664;-66
2022/03/15 05:56:43;;;;;;;;;;;;;;;;;;4966997;28;129652;-66
2022/03/15 05:59:09;;;;;;;;;;;;;;;;;;4959971;28;116027;-67
2022/03/15 06:01:36;;;;;;;;;;;;;;;;;;4969227;28;128865;-66
2022/03/15 06:04:03;;;;;;;;;;;;;;;;;;4966448;28;119648;-66
2022/03/15 06:06:29;;;;;;;;;;;;;;;;;;4960787;28;134357;-66
2022/03/15 06:08:56;;;;;;;;;;;;;;;;;;4961785;28;134170;-68
2022/03/15 06:11:22;;;;;;;;;;;;;;;;;;4951902;28;106051;-66
2022/03/15 06:13:48;;;;;;;;;;;;;;;;;;4955274;28;132179;-66
2022/03/15 06:16:15;;;;;;;;;;;;;;;;;;4970036;28;136872;-65
2022/03/15 06:18:42;;;;;;;;;;;;;;;;;;4969464;28;106053;-65
2022/03/15 06:21:09;;;;;;;;;;;;;;;;;;4970244;28;137575;-67
2022/03/15 06:23:35;;;;;;;;;;;;;;;;;;4971434;28;137741;-68
2022/03/15 06:26:09;;;;;;;;;;;;;;;;;;4969469;28;133989;-66
2022/03/15 06:28:35;;;;;;;;;;;;;;;;;;4962145;28;138020;-66
2022/03/15 06:31:02;;;;;;;;;;;;;;;;;;4957914;28;123220;-66
2022/03/15 06:33:28;;;;;;;;;;;;;;;;;;4966233;28;136921;-66
2022/03/15 06:35:55;;;;;;;;;;;;;;;;;;4961609;28;137189;-66
2022/03/15 06:38:22;;;;;;;;;;;;;;;;;;4968017;28;105625;-65
2022/03/15 06:40:49;;;;;;;;;;;;;;;;;;4970832;28;134751;-65
2022/03/15 06:43:15;;;;;;;;;;;;;;;;;;4963516;28;137826;-65
2022/03/15 06:45:42;;;;;;;;;;;;;;;;;;4971464;28;123512;-65
2022/03/15 06:48:08;;;;;;;;;;;;;;;;;;4960923;28;136876;-66
2022/03/15 06:50:34;;;;;;;;;;;;;;;;;;4967964;28;123238;-67
2022/03/15 06:53:01;;;;;;;;;;;;;;;;;;4963654;28;136816;-64
2022/03/15 06:55:27;;;;;;;;;;;;;;;;;;4965869;28;136376;-66
2022/03/15 06:57:54;;;;;;;;;;;;;;;;;;4966309;28;119960;-65
2022/03/15 07:00:23;;;;;;;;;;;;;;;;;;4967960;28;107050;-66
2022/03/15 07:02:49;;;;;;;;;;;;;;;;;;4966465;28;135548;-67
2022/03/15 07:05:16;;;;;;;;;;;;;;;;;;4969313;28;106697;-68
2022/03/15 07:07:42;;;;;;;;;;;;;;;;;;4970058;28;135991;-68
2022/03/15 07:10:10;;;;;;;;;;;;;;;;;;4929925;28;121752;-69
2022/03/15 07:12:36;;;;;;;;;;;;;;;;;;4930581;28;137688;-68
2022/03/15 07:15:03;;;;;;;;;;;;;;;;;;4930915;28;136513;-70
2022/03/15 07:17:32;;;;;;;;;;;;;;;;;;4929118;28;121864;-66
2022/03/15 07:19:59;;;;;;;;;;;;;;;;;;4914407;28;133979;-66
2022/03/15 07:22:25;;;;;;;;;;;;;;;;;;4921725;28;138090;-67
2022/03/15 07:24:51;;;;;;;;;;;;;;;;;;4930508;28;125065;-68
2022/03/15 07:27:18;;;;;;;;;;;;;;;;;;4928723;28;136561;-68
2022/03/15 07:29:44;;;;;;;;;;;;;;;;;;4932905;28;106053;-66
2022/03/15 07:32:10;;;;;;;;;;;;;;;;;;4926950;28;135066;-68
2022/03/15 07:34:36;;;;;;;;;;;;;;;;;;4922532;28;136774;-65
2022/03/15 07:37:03;;;;;;;;;;;;;;;;;;4929432;28;110668;-67
2022/03/15 07:39:29;;;;;;;;;;;;;;;;;;4927058;28;106891;-67
2022/03/15 07:41:57;;;;;;;;;;;;;;;;;;4928792;28;135429;-67
2022/03/15 07:44:23;;;;;;;;;;;;;;;;;;4927993;28;123143;-67
2022/03/15 07:46:49;;;;;;;;;;;;;;;;;;4928860;28;132049;-66
2022/03/15 07:49:16;;;;;;;;;;;;;;;;;;4931750;28;137565;-67
2022/03/15 07:51:42;;;;;;;;;;;;;;;;;;4928596;28;135702;-68
2022/03/15 07:54:09;;;;;;;;;;;;;;;;;;4928651;28;108439;-67
2022/03/15 07:56:35;;;;;;;;;;;;;;;;;;4930109;28;106043;-67
2022/03/15 07:59:01;;;;;;;;;;;;;;;;;;4929603;28;128136;-69
2022/03/15 08:01:27;;;;;;;;;;;;;;;;;;4928043;28;137703;-69
2022/03/15 08:03:56;;;;;;;;;;;;;;;;;;4929578;28;106336;-69
2022/03/15 08:06:22;;;;;;;;;;;;;;;;;;4928144;28;136825;-67
2022/03/15 08:08:49;;;;;;;;;;;;;;;;;;4935705;28;138485;-68
2022/03/15 08:11:15;;;;;;;;;;;;;;;;;;4949884;28;121924;-68
2022/03/15 08:13:42;;;;;;;;;;;;;;;;;;4947281;28;136697;-67
2022/03/15 08:16:08;;;;;;;;;;;;;;;;;;4958370;28;125461;-68
2022/03/15 08:18:35;;;;;;;;;;;;;;;;;;4948300;28;124241;-69
2022/03/15 08:21:01;;;;;;;;;;;;;;;;;;4962968;28;136389;-68
2022/03/15 08:23:27;;;;;;;;;;;;;;;;;;4947106;28;123231;-69
2022/03/15 08:25:55;;;;;;;;;;;;;;;;;;4964054;28;136309;-67
2022/03/15 08:28:22;;;;;;;;;;;;;;;;;;4965101;28;137529;-69
2022/03/15 08:30:49;;;;;;;;;;;;;;;;;;4948799;28;123545;-68
2022/03/15 08:33:15;;;;;;;;;;;;;;;;;;4950605;28;123402;-69
2022/03/15 08:35:41;;;;;;;;;;;;;;;;;;4947820;28;122961;-69
2022/03/15 08:38:08;;;;;;;;;;;;;;;;;;4947181;28;135893;-69
2022/03/15 08:40:35;;;;;;;;;;;;;;;;;;4947824;28;137529;-69
2022/03/15 08:43:01;;;;;;;;;;;;;;;;;;4951626;28;123054;-68
2022/03/15 08:45:27;;;;;;;;;;;;;;;;;;4962683;28;136060;-69
2022/03/15 08:47:53;;;;;;;;;;;;;;;;;;4960656;28;136292;-66
2022/03/15 08:50:20;;;;;;;;;;;;;;;;;;4970334;28;110877;-68
2022/03/15 08:52:48;;;;;;;;;;;;;;;;;;4951125;28;137263;-69
2022/03/15 08:55:14;;;;;;;;;;;;;;;;;;4969936;28;119495;-68
2022/03/15 08:57:40;;;;;;;;;;;;;;;;;;4951786;28;136563;-68
2022/03/15 09:00:06;;;;;;;;;;;;;;;;;;4950343;28;135779;-66
2022/03/15 09:02:33;;;;;;;;;;;;;;;;;;4966156;28;127556;-67
2022/03/15 09:04:59;;;;;;;;;;;;;;;;;;4970734;28;136442;-68
2022/03/15 09:07:27;;;;;;;;;;;;;;;;;;4963036;28;137844;-68
2022/03/15 09:09:53;;;;;;;;;;;;;;;;;;4969955;28;106439;-67
2022/03/15 09:12:20;;;;;;;;;;;;;;;;;;4950708;28;135080;-67
2022/03/15 09:14:47;;;;;;;;;;;;;;;;;;4950157;28;137272;-67
2022/03/15 09:17:13;;;;;;;;;;;;;;;;;;4953688;28;120104;-68
2022/03/15 09:19:40;;;;;;;;;;;;;;;;;;4950674;28;130297;-68
2022/03/15 09:22:07;;;;;;;;;;;;;;;;;;4966136;28;106135;-67
2022/03/15 09:24:34;;;;;;;;;;;;;;;;;;4969160;28;135500;-67
2022/03/15 09:27:01;;;;;;;;;;;;;;;;;;4951545;28;134268;-67
2022/03/15 09:29:27;;;;;;;;;;;;;;;;;;4956438;28;121746;-67
2022/03/15 09:31:54;;;;;;;;;;;;;;;;;;4968625;28;135941;-66
2022/03/15 09:34:22;;;;;;;;;;;;;;;;;;4954046;28;138175;-68
2022/03/15 09:36:48;;;;;;;;;;;;;;;;;;4954472;28;121823;-68
2022/03/15 09:39:15;;;;;;;;;;;;;;;;;;4949166;28;137059;-68
2022/03/15 09:41:41;;;;;;;;;;;;;;;;;;4950890;28;123112;-68
2022/03/15 09:44:08;;;;;;;;;;;;;;;;;;4950394;28;136212;-66
2022/03/15 09:46:34;;;;;;;;;;;;;;;;;;4950390;28;137314;-68
2022/03/15 09:49:21;;;;;;;;;;;;;;;;;;4950716;28;106490;-67
2022/03/15 09:51:47;;;;;;;;;;;;;;;;;;4960594;28;137002;-67
2022/03/15 09:54:13;;;;;;;;;;;;;;;;;;4958159;28;137026;-67
2022/03/15 09:56:40;;;;;;;;;;;;;;;;;;4949731;28;124129;-67
2022/03/15 09:59:06;;;;;;;;;;;;;;;;;;4952838;28;137397;-67
2022/03/15 10:01:32;;;;;;;;;;;;;;;;;;4950407;28;122948;-67
2022/03/15 10:03:58;;;;;;;;;;;;;;;;;;4951586;28;138263;-67
2022/03/15 10:06:25;;;;;;;;;;;;;;;;;;4949849;28;128285;-67
2022/03/15 10:08:51;;;;;;;;;;;;;;;;;;4949288;28;120980;-67
2022/03/15 10:11:19;;;;;;;;;;;;;;;;;;4949187;28;135282;-68
2022/03/15 10:13:47;;;;;;;;;;;;;;;;;;4963911;28;136039;-68
2022/03/15 10:16:14;;;;;;;;;;;;;;;;;;4950186;28;125762;-67
2022/03/15 10:18:40;;;;;;;;;;;;;;;;;;4950014;28;130422;-68
2022/03/15 10:21:06;;;;;;;;;;;;;;;;;;4956704;28;137147;-69
2022/03/15 10:23:32;;;;;;;;;;;;;;;;;;4949511;28;135006;-68
2022/03/15 10:25:59;;;;;;;;;;;;;;;;;;4950151;28;108311;-68
2022/03/15 10:28:25;;;;;;;;;;;;;;;;;;4964573;28;123065;-68
2022/03/15 10:30:52;;;;;;;;;;;;;;;;;;4953579;28;131973;-69
2022/03/15 10:33:19;;;;;;;;;;;;;;;;;;4958388;28;137765;-69
2022/03/15 10:35:45;;;;;;;;;;;;;;;;;;4950254;28;123062;-68
2022/03/15 10:38:12;;;;;;;;;;;;;;;;;;4947152;28;137403;-67
2022/03/15 10:40:38;;;;;;;;;;;;;;;;;;4948974;28;136900;-67
2022/03/15 10:43:06;;;;;;;;;;;;;;;;;;4954207;28;105833;-67
2022/03/15 10:45:34;;;;;;;;;;;;;;;;;;4949680;28;113935;-69
2022/03/15 10:48:00;;;;;;;;;;;;;;;;;;4949488;28;124185;-67
2022/03/15 10:50:29;;;;;;;;;;;;;;;;;;4949030;28;135970;-69
2022/03/15 10:52:56;;;;;;;;;;;;;;;;;;4949063;28;107294;-69
2022/03/15 10:55:23;;;;;;;;;;;;;;;;;;4948728;28;123182;-67
2022/03/15 10:57:49;;;;;;;;;;;;;;;;;;4961609;28;135080;-67
2022/03/15 11:00:15;;;;;;;;;;;;;;;;;;4958435;28;135606;-67
2022/03/15 11:02:42;;;;;;;;;;;;;;;;;;4951945;28;114853;-68
2022/03/15 11:05:08;;;;;;;;;;;;;;;;;;4971326;28;135996;-68
2022/03/15 11:07:34;;;;;;;;;;;;;;;;;;4959048;28;105951;-68
2022/03/15 11:10:01;;;;;;;;;;;;;;;;;;4949933;28;123551;-68
2022/03/15 11:12:28;;;;;;;;;;;;;;;;;;4947889;28;137134;-68
2022/03/15 11:14:59;;;;;;;;;;;;;;;;;;4949351;28;123078;-69
2022/03/15 11:17:25;;;;;;;;;;;;;;;;;;4948417;28;135196;-68
2022/03/15 11:19:52;;;;;;;;;;;;;;;;;;4948541;28;135829;-68
2022/03/15 11:22:20;;;;;;;;;;;;;;;;;;4955569;28;120968;-68
2022/03/15 11:24:47;;;;;;;;;;;;;;;;;;4969580;28;106034;-68
2022/03/15 11:27:14;;;;;;;;;;;;;;;;;;4960297;28;137053;-68
2022/03/15 11:29:40;;;;;;;;;;;;;;;;;;4949464;28;134376;-68
2022/03/15 11:32:07;;;;;;;;;;;;;;;;;;4948148;28;131367;-68
2022/03/15 11:34:33;;;;;;;;;;;;;;;;;;4973553;28;121767;-66
2022/03/15 11:37:00;;;;;;;;;;;;;;;;;;4960297;28;108440;-67
2022/03/15 11:39:27;;;;;;;;;;;;;;;;;;4957396;28;107419;-67
2022/03/15 11:41:54;;;;;;;;;;;;;;;;;;4949118;28;122040;-67
2022/03/15 11:44:20;;;;;;;;;;;;;;;;;;4954975;28;135124;-67
2022/03/15 11:46:47;;;;;;;;;;;;;;;;;;4969328;28;137017;-67
2022/03/15 11:49:13;;;;;;;;;;;;;;;;;;4967553;28;136087;-67
2022/03/15 11:51:40;;;;;;;;;;;;;;;;;;4949695;28;138333;-67
2022/03/15 11:54:08;;;;;;;;;;;;;;;;;;4948935;28;108005;-68
2022/03/15 11:56:34;;;;;;;;;;;;;;;;;;4948654;28;136704;-68
2022/03/15 11:59:00;;;;;;;;;;;;;;;;;;4949414;28;113423;-67
2022/03/15 12:01:28;;;;;;;;;;;;;;;;;;4948062;28;123043;-66
2022/03/15 12:03:54;;;;;;;;;;;;;;;;;;4955302;28;138111;-67
2022/03/15 12:06:21;;;;;;;;;;;;;;;;;;4947278;28;137265;-66
2022/03/15 12:08:50;;;;;;;;;;;;;;;;;;4962046;28;107205;-67
2022/03/15 12:11:16;;;;;;;;;;;;;;;;;;4965196;28;121698;-69
2022/03/15 12:13:45;;;;;;;;;;;;;;;;;;4967866;28;121931;-67
2022/03/15 12:16:21;;;;;;;;;;;;;;;;;;4949451;28;106816;-67
2022/03/15 12:18:51;;;;;;;;;;;;;;;;;;4951081;28;137123;-67
2022/03/15 12:21:18;;;;;;;;;;;;;;;;;;4951069;28;119942;-67
2022/03/15 12:23:44;;;;;;;;;;;;;;;;;;4950966;28;137498;-67
2022/03/15 12:26:10;;;;;;;;;;;;;;;;;;4950869;28;134236;-67
2022/03/15 12:28:36;;;;;;;;;;;;;;;;;;4951135;28;111803;-66
2022/03/15 12:31:03;;;;;;;;;;;;;;;;;;4955400;28;135212;-66
2022/03/15 12:33:29;;;;;;;;;;;;;;;;;;4968779;28;106366;-68
2022/03/15 12:35:59;;;;;;;;;;;;;;;;;;4967123;28;106757;-68
2022/03/15 12:38:25;;;;;;;;;;;;;;;;;;4969728;28;127695;-67
2022/03/15 12:40:52;;;;;;;;;;;;;;;;;;4955070;28;123663;-67
2022/03/15 12:43:18;;;;;;;;;;;;;;;;;;4950368;28;119022;-67
2022/03/15 12:45:45;;;;;;;;;;;;;;;;;;4950386;28;138271;-67
2022/03/15 12:48:11;;;;;;;;;;;;;;;;;;4949861;28;123604;-67
2022/03/15 12:50:54;;;;;;;;;;;;;;;;;;4966063;28;135628;-67
2022/03/15 12:53:20;;;;;;;;;;;;;;;;;;4952652;28;137403;-67
2022/03/15 12:55:46;;;;;;;;;;;;;;;;;;4965646;28;129472;-68
2022/03/15 12:58:13;;;;;;;;;;;;;;;;;;4968814;28;137451;-68
2022/03/15 13:00:39;;;;;;;;;;;;;;;;;;4951077;28;121587;-68
2022/03/15 13:03:05;;;;;;;;;;;;;;;;;;4950175;28;135692;-68
2022/03/15 13:05:32;;;;;;;;;;;;;;;;;;4955219;28;137950;-67
2022/03/15 13:08:02;;;;;;;;;;;;;;;;;;4970136;28;106637;-67
2022/03/15 13:10:28;;;;;;;;;;;;;;;;;;4953898;28;137600;-67
2022/03/15 13:12:56;;;;;;;;;;;;;;;;;;4950569;28;135358;-67
2022/03/15 13:15:24;;;;;;;;;;;;;;;;;;4954161;28;111469;-68
2022/03/15 13:17:51;;;;;;;;;;;;;;;;;;4949697;28;138937;-67
2022/03/15 13:20:17;;;;;;;;;;;;;;;;;;4956390;28;122088;-67
2022/03/15 13:22:43;;;;;;;;;;;;;;;;;;4965970;28;133942;-68
2022/03/15 13:25:10;;;;;;;;;;;;;;;;;;4967689;28;135772;-68
2022/03/15 13:27:36;;;;;;;;;;;;;;;;;;4967971;28;120887;-67
2022/03/15 13:30:03;;;;;;;;;;;;;;;;;;4965411;28;137849;-67
2022/03/15 13:32:29;;;;;;;;;;;;;;;;;;4949746;28;138680;-67
2022/03/15 13:34:57;;;;;;;;;;;;;;;;;;4958761;28;124412;-67
2022/03/15 13:37:24;;;;;;;;;;;;;;;;;;4971603;28;137217;-67
2022/03/15 13:39:50;;;;;;;;;;;;;;;;;;4956090;28;124280;-67
2022/03/15 13:42:19;;;;;;;;;;;;;;;;;;4955833;28;134754;-67
2022/03/15 13:44:47;;;;;;;;;;;;;;;;;;4949843;28;135664;-67
2022/03/15 13:47:15;;;;;;;;;;;;;;;;;;4961864;28;123000;-67
2022/03/15 13:49:42;;;;;;;;;;;;;;;;;;4969048;28;135926;-67
2022/03/15 13:52:08;;;;;;;;;;;;;;;;;;4953799;28;108025;-67
2022/03/15 13:54:35;;;;;;;;;;;;;;;;;;4949078;28;123530;-67
2022/03/15 13:57:04;;;;;;;;;;;;;;;;;;4953231;28;137338;-67
2022/03/15 13:59:31;;;;;;;;;;;;;;;;;;4949409;28;121323;-67
2022/03/15 14:01:57;;;;;;;;;;;;;;;;;;4955320;28;137712;-67
2022/03/15 14:04:23;;;;;;;;;;;;;;;;;;4957504;28;138591;-67
2022/03/15 14:06:50;;;;;;;;;;;;;;;;;;4967837;28;124430;-67
2022/03/15 14:09:17;;;;;;;;;;;;;;;;;;4948682;28;138521;-68
2022/03/15 14:11:47;;;;;;;;;;;;;;;;;;4964611;28;131121;-67
2022/03/15 14:14:13;;;;;;;;;;;;;;;;;;4962288;28;109766;-67
2022/03/15 14:16:40;;;;;;;;;;;;;;;;;;4951502;28;135927;-67
2022/03/15 14:19:09;;;;;;;;;;;;;;;;;;4951655;28;137402;-67
2022/03/15 14:21:36;;;;;;;;;;;;;;;;;;4949377;28;137317;-67
2022/03/15 14:24:04;;;;;;;;;;;;;;;;;;4949516;28;109179;-66
2022/03/15 14:26:30;;;;;;;;;;;;;;;;;;4949164;28;115588;-66
2022/03/15 14:28:56;;;;;;;;;;;;;;;;;;4948234;28;136703;-67
2022/03/15 14:31:23;;;;;;;;;;;;;;;;;;4960215;28;139170;-67
2022/03/15 14:33:50;;;;;;;;;;;;;;;;;;4946960;28;123229;-66
2022/03/15 14:36:16;;;;;;;;;;;;;;;;;;4966279;28;137066;-67
2022/03/15 14:38:42;;;;;;;;;;;;;;;;;;4950519;28;138494;-67
2022/03/15 14:41:09;;;;;;;;;;;;;;;;;;4950688;28;125550;-68
2022/03/15 14:43:36;;;;;;;;;;;;;;;;;;4946126;28;140315;-67
2022/03/15 14:46:06;;;;;;;;;;;;;;;;;;4947776;28;126889;-67
2022/03/15 14:48:33;;;;;;;;;;;;;;;;;;4950528;28;131397;-67
2022/03/15 14:51:01;;;;;;;;;;;;;;;;;;4948222;28;110064;-67
2022/03/15 14:53:29;;;;;;;;;;;;;;;;;;4946538;28;108805;-66
2022/03/15 14:55:55;;;;;;;;;;;;;;;;;;4949410;28;137778;-68
2022/03/15 14:58:22;;;;;;;;;;;;;;;;;;4965341;28;139996;-67
2022/03/15 15:00:57;;;;;;;;;;;;;;;;;;4946502;28;125524;-67
2022/03/15 15:03:26;;;;;;;;;;;;;;;;;;4950579;28;115432;-67
2022/03/15 15:05:57;;;;;;;;;;;;;;;;;;4963247;28;108344;-67
2022/03/15 15:08:26;;;;;;;;;;;;;;;;;;4954695;28;136816;-67
2022/03/15 15:10:53;;;;;;;;;;;;;;;;;;4963915;28;110277;-66
2022/03/15 15:13:24;;;;;;;;;;;;;;;;;;4953668;28;126120;-68
2022/03/15 15:15:51;;;;;;;;;;;;;;;;;;4957850;28;136694;-68
2022/03/15 15:18:19;;;;;;;;;;;;;;;;;;4965442;28;140656;-68
2022/03/15 15:20:46;;;;;;;;;;;;;;;;;;4961970;28;109215;-68
2022/03/15 15:23:13;;;;;;;;;;;;;;;;;;4946355;28;137935;-68
2022/03/15 15:25:41;;;;;;;;;;;;;;;;;;4960672;28;139614;-68
2022/03/15 15:28:13;;;;;;;;;;;;;;;;;;4965009;28;138608;-68
2022/03/15 15:30:39;;;;;;;;;;;;;;;;;;4946791;28;137867;-68
2022/03/15 15:33:06;;;;;;;;;;;;;;;;;;4958661;28;125175;-69
2022/03/15 15:35:36;;;;;;;;;;;;;;;;;;4976447;28;139807;-68
2022/03/15 15:38:03;;;;;;;;;;;;;;;;;;4964202;28;133444;-69
2022/03/15 15:40:29;;;;;;;;;;;;;;;;;;4955475;28;111023;-69
2022/03/15 15:42:56;;;;;;;;;;;;;;;;;;4961687;28;139319;-69
2022/03/15 15:45:22;;;;;;;;;;;;;;;;;;4965602;28;131037;-69
2022/03/15 15:47:49;;;;;;;;;;;;;;;;;;4964701;28;125556;-70
2022/03/15 15:50:17;;;;;;;;;;;;;;;;;;4956854;28;110105;-71
2022/03/15 15:52:53;;;;;;;;;;;;;;;;;;4954818;28;123547;-70
2022/03/15 15:55:19;;;;;;;;;;;;;;;;;;4965183;28;109137;-70
2022/03/15 15:57:45;;;;;;;;;;;;;;;;;;4963532;28;109617;-70
2022/03/15 16:00:12;;;;;;;;;;;;;;;;;;4963480;28;128797;-70
2022/03/15 16:02:38;;;;;;;;;;;;;;;;;;4961910;28;138204;-70
2022/03/15 16:05:07;;;;;;;;;;;;;;;;;;4962519;28;139607;-69
2022/03/15 16:07:44;;;;;;;;;;;;;;;;;;4970252;28;124812;-70
2022/03/15 16:10:10;;;;;;;;;;;;;;;;;;4966595;28;129924;-70
2022/03/15 16:12:37;;;;;;;;;;;;;;;;;;4968494;28;124478;-70
2022/03/15 16:15:03;;;;;;;;;;;;;;;;;;4966991;28;137777;-70
2022/03/15 16:17:29;;;;;;;;;;;;;;;;;;4964012;28;136625;-70
2022/03/15 16:19:56;;;;;;;;;;;;;;;;;;4968500;28;112356;-70
2022/03/15 16:22:22;;;;;;;;;;;;;;;;;;4960119;28;135564;-70
2022/03/15 16:24:49;;;;;;;;;;;;;;;;;;4963976;28;137409;-70
2022/03/15 16:27:16;;;;;;;;;;;;;;;;;;4962298;28;124569;-69
2022/03/15 16:29:42;;;;;;;;;;;;;;;;;;4971712;28;136802;-70